Time,TemperatureF,DewpointF,PressureIn,WindDirection,WindDirectionDegrees,WindSpeedMPH,WindSpeedGustMPH,Humidity,HourlyPrecipIn,Conditions,Clouds,dailyrainin,SolarRadiationWatts/m^2,SoftwareType,DateUTC
2013-04-23 00:02:00,65.0,60.7,30.10,NE,56,0.0,-999.0,86,0.00,,,0.00,0,Wunderground v.1.15,2013-04-23 05:02:00,
2013-04-23 00:08:00,65.1,61.1,30.11,SE,138,0.0,-999.0,87,0.00,,,0.00,0,Wunderground v.1.15,2013-04-23 05:08:00,
2013-04-23 00:14:00,65.2,61.2,30.11,SSE,157,0.0,-999.0,87,0.00,,,0.00,0,Wunderground v.1.15,2013-04-23 05:14:00,
2013-04-23 00:20:00,65.4,61.4,30.11,East,93,0.0,-999.0,87,0.00,,,0.00,0,Wunderground v.1.15,2013-04-23 05:20:00,
2013-04-23 00:26:00,65.6,61.3,30.10,ESE,116,0.0,-999.0,86,0.00,,,0.00,0,Wunderground v.1.15,2013-04-23 05:26:00,
2013-04-23 00:32:00,65.7,61.4,30.10,SE,142,0.0,-999.0,86,0.00,,,0.00,0,Wunderground v.1.15,2013-04-23 05:32:00,
2013-04-23 00:38:00,65.9,61.6,30.10,South,174,1.0,-999.0,86,0.00,,,0.00,0,Wunderground v.1.15,2013-04-23 05:38:00,
2013-04-23 00:44:00,66.1,61.8,30.10,South,175,0.0,-999.0,86,0.00,,,0.00,0,Wunderground v.1.15,2013-04-23 05:44:00,
2013-04-23 00:50:00,66.1,61.8,30.10,SSW,194,0.0,-999.0,86,0.00,,,0.00,0,Wunderground v.1.15,2013-04-23 05:50:00,
2013-04-23 00:56:00,66.1,61.8,30.10,East,90,0.0,-999.0,86,0.00,,,0.00,0,Wunderground v.1.15,2013-04-23 05:56:00,
2013-04-23 01:02:00,66.2,61.9,30.10,SW,215,0.0,-999.0,86,0.00,,,0.00,0,Wunderground v.1.15,2013-04-23 06:02:00,
2013-04-23 01:08:00,66.2,61.9,30.09,South,179,0.0,-999.0,86,0.00,,,0.00,0,Wunderground v.1.15,2013-04-23 06:08:00,
2013-04-23 01:14:00,66.3,62.0,30.09,South,169,1.0,-999.0,86,0.00,,,0.00,0,Wunderground v.1.15,2013-04-23 06:14:00,
2013-04-23 01:20:00,66.3,62.3,30.09,NW,306,1.0,-999.0,87,0.00,,,0.00,0,Wunderground v.1.15,2013-04-23 06:20:00,
2013-04-23 01:26:00,66.4,62.4,30.09,East,94,1.0,-999.0,87,0.00,,,0.00,0,Wunderground v.1.15,2013-04-23 06:26:00,
2013-04-23 01:32:00,66.4,62.4,30.09,SSE,165,0.0,-999.0,87,0.00,,,0.00,0,Wunderground v.1.15,2013-04-23 06:32:00,
2013-04-23 01:38:00,66.5,62.5,30.09,SSE,165,0.0,-999.0,87,0.00,,,0.00,0,Wunderground v.1.15,2013-04-23 06:38:00,
2013-04-23 01:44:00,66.5,62.8,30.08,SE,127,1.0,-999.0,88,0.00,,,0.00,0,Wunderground v.1.15,2013-04-23 06:44:00,
2013-04-23 01:50:00,66.5,62.5,30.08,SSE,147,1.0,-999.0,87,0.00,,,0.00,0,Wunderground v.1.15,2013-04-23 06:50:00,
2013-04-23 01:56:00,66.5,62.5,30.08,SE,144,1.0,-999.0,87,0.00,,,0.00,0,Wunderground v.1.15,2013-04-23 06:56:00,
2013-04-23 02:02:00,66.5,62.2,30.08,South,175,1.0,-999.0,86,0.00,,,0.00,0,Wunderground v.1.15,2013-04-23 07:02:00,
2013-04-23 02:08:00,66.5,62.2,30.08,SE,132,1.0,-999.0,86,0.00,,,0.00,0,Wunderground v.1.15,2013-04-23 07:08:00,
2013-04-23 02:14:00,66.5,61.8,30.08,SW,232,1.0,-999.0,85,0.00,,,0.00,0,Wunderground v.1.15,2013-04-23 07:14:00,
2013-04-23 02:20:00,66.5,61.8,30.07,ESE,107,1.0,-999.0,85,0.00,,,0.00,0,Wunderground v.1.15,2013-04-23 07:20:00,
2013-04-23 02:26:00,66.6,61.9,30.07,SSE,159,1.0,-999.0,85,0.00,,,0.00,0,Wunderground v.1.15,2013-04-23 07:26:00,
2013-04-23 02:32:00,66.6,61.9,30.07,WNW,297,0.0,-999.0,85,0.00,,,0.00,0,Wunderground v.1.15,2013-04-23 07:32:00,
2013-04-23 02:38:00,66.6,61.9,30.07,South,179,1.0,-999.0,85,0.00,,,0.00,0,Wunderground v.1.15,2013-04-23 07:38:00,
2013-04-23 02:44:00,66.7,62.0,30.07,SSW,209,2.0,-999.0,85,0.00,,,0.00,0,Wunderground v.1.15,2013-04-23 07:44:00,
2013-04-23 02:50:00,66.8,62.1,30.07,SSW,196,2.0,-999.0,85,0.00,,,0.00,0,Wunderground v.1.15,2013-04-23 07:50:00,
2013-04-23 02:56:00,66.9,62.2,30.08,SSE,156,1.0,-999.0,85,0.00,,,0.00,0,Wunderground v.1.15,2013-04-23 07:56:00,
2013-04-23 03:02:00,67.0,62.3,30.07,SE,137,1.0,-999.0,85,0.00,,,0.00,0,Wunderground v.1.15,2013-04-23 08:02:00,
2013-04-23 03:08:00,67.0,62.3,30.08,ESE,113,1.0,-999.0,85,0.00,,,0.00,0,Wunderground v.1.15,2013-04-23 08:08:00,
2013-04-23 03:14:00,67.0,62.3,30.08,SE,136,1.0,-999.0,85,0.00,,,0.00,0,Wunderground v.1.15,2013-04-23 08:14:00,
2013-04-23 03:20:00,67.0,62.3,30.08,SSE,149,1.0,-999.0,85,0.00,,,0.00,0,Wunderground v.1.15,2013-04-23 08:20:00,
2013-04-23 03:26:00,67.0,62.3,30.08,SE,138,1.0,-999.0,85,0.00,,,0.00,0,Wunderground v.1.15,2013-04-23 08:26:00,
2013-04-23 03:32:00,67.1,62.4,30.08,SE,145,1.0,-999.0,85,0.00,,,0.00,0,Wunderground v.1.15,2013-04-23 08:32:00,
2013-04-23 03:38:00,67.1,62.8,30.08,SSE,162,1.0,-999.0,86,0.00,,,0.00,0,Wunderground v.1.15,2013-04-23 08:38:00,
2013-04-23 03:44:00,67.2,62.9,30.08,South,178,1.0,-999.0,86,0.00,,,0.00,0,Wunderground v.1.15,2013-04-23 08:44:00,
2013-04-23 03:50:00,67.2,62.9,30.08,NNE,16,1.0,-999.0,86,0.00,,,0.00,0,Wunderground v.1.15,2013-04-23 08:50:00,
2013-04-23 03:56:00,67.2,62.9,30.07,SSE,157,1.0,-999.0,86,0.00,,,0.00,0,Wunderground v.1.15,2013-04-23 08:56:00,
2013-04-23 04:02:00,67.2,62.9,30.08,East,96,1.0,-999.0,86,0.00,,,0.00,0,Wunderground v.1.15,2013-04-23 09:02:00,
2013-04-23 04:08:00,67.3,63.0,30.08,SSE,157,1.0,-999.0,86,0.00,,,0.00,0,Wunderground v.1.15,2013-04-23 09:08:00,
2013-04-23 04:14:00,67.4,63.1,30.08,SSE,148,1.0,-999.0,86,0.00,,,0.00,0,Wunderground v.1.15,2013-04-23 09:14:00,
2013-04-23 04:20:00,67.6,63.3,30.08,ESE,119,1.0,-999.0,86,0.00,,,0.00,0,Wunderground v.1.15,2013-04-23 09:20:00,
2013-04-23 04:26:00,67.6,63.3,30.08,SSE,153,1.0,-999.0,86,0.00,,,0.00,0,Wunderground v.1.15,2013-04-23 09:26:00,
2013-04-23 04:32:00,67.7,63.4,30.08,South,181,1.0,-999.0,86,0.00,,,0.00,0,Wunderground v.1.15,2013-04-23 09:32:00,
2013-04-23 04:38:00,67.7,63.4,30.08,SE,138,0.0,-999.0,86,0.00,,,0.00,0,Wunderground v.1.15,2013-04-23 09:38:00,
2013-04-23 04:44:00,67.7,63.4,30.08,SSE,159,0.0,-999.0,86,0.00,,,0.00,0,Wunderground v.1.15,2013-04-23 09:44:00,
2013-04-23 04:50:00,67.8,63.5,30.08,SSE,167,1.0,-999.0,86,0.00,,,0.00,0,Wunderground v.1.15,2013-04-23 09:50:00,
2013-04-23 04:56:00,67.7,63.4,30.08,SSE,161,1.0,-999.0,86,0.00,,,0.00,0,Wunderground v.1.15,2013-04-23 09:56:00,
2013-04-23 05:02:00,67.7,63.4,30.08,SSE,153,0.0,-999.0,86,0.00,,,0.00,0,Wunderground v.1.15,2013-04-23 10:02:00,
2013-04-23 05:08:00,67.6,63.3,30.08,South,173,0.0,-999.0,86,0.00,,,0.00,0,Wunderground v.1.15,2013-04-23 10:08:00,
2013-04-23 05:14:00,67.5,63.2,30.08,SE,132,0.0,-999.0,86,0.00,,,0.00,0,Wunderground v.1.15,2013-04-23 10:14:00,
2013-04-23 05:20:00,67.6,63.6,30.08,ESE,107,0.0,-999.0,87,0.00,,,0.00,0,Wunderground v.1.15,2013-04-23 10:20:00,
2013-04-23 05:26:00,67.5,63.5,30.08,SE,142,1.0,-999.0,87,0.00,,,0.00,0,Wunderground v.1.15,2013-04-23 10:26:00,
2013-04-23 05:32:00,67.4,63.4,30.08,ESE,119,1.0,-999.0,87,0.00,,,0.00,0,Wunderground v.1.15,2013-04-23 10:32:00,
2013-04-23 05:38:00,67.4,63.1,30.08,South,171,1.0,-999.0,86,0.00,,,0.00,0,Wunderground v.1.15,2013-04-23 10:38:00,
2013-04-23 05:44:00,67.4,63.1,30.08,SSE,150,1.0,-999.0,86,0.00,,,0.00,0,Wunderground v.1.15,2013-04-23 10:44:00,
2013-04-23 05:50:00,67.4,63.1,30.08,SSE,161,0.0,-999.0,86,0.00,,,0.00,0,Wunderground v.1.15,2013-04-23 10:50:00,
2013-04-23 05:56:00,67.5,63.5,30.09,SE,128,0.0,-999.0,87,0.00,,,0.00,0,Wunderground v.1.15,2013-04-23 10:56:00,
2013-04-23 06:02:00,67.5,63.5,30.09,ESE,115,1.0,-999.0,87,0.00,,,0.00,0,Wunderground v.1.15,2013-04-23 11:02:00,
2013-04-23 06:08:00,67.5,63.2,30.09,SE,141,1.0,-999.0,86,0.00,,,0.00,0,Wunderground v.1.15,2013-04-23 11:08:00,
2013-04-23 06:14:00,67.4,63.4,30.09,ESE,108,1.0,-999.0,87,0.00,,,0.00,0,Wunderground v.1.15,2013-04-23 11:14:00,
2013-04-23 06:20:00,67.3,63.3,30.09,SSE,159,1.0,-999.0,87,0.00,,,0.00,7,Wunderground v.1.15,2013-04-23 11:20:00,
2013-04-23 06:26:00,67.2,63.2,30.10,NE,46,1.0,-999.0,87,0.00,,,0.00,11,Wunderground v.1.15,2013-04-23 11:26:00,
2013-04-23 06:32:00,67.1,63.1,30.10,SSE,160,0.0,-999.0,87,0.00,,,0.00,16,Wunderground v.1.15,2013-04-23 11:32:00,
2013-04-23 06:38:00,67.2,63.2,30.10,SSW,211,0.0,-999.0,87,0.00,,,0.00,23,Wunderground v.1.15,2013-04-23 11:38:00,
2013-04-23 06:44:00,67.2,63.2,30.10,South,185,0.0,-999.0,87,0.00,,,0.00,23,Wunderground v.1.15,2013-04-23 11:44:00,
2013-04-23 06:50:00,67.1,63.1,30.10,South,191,0.0,-999.0,87,0.00,,,0.00,39,Wunderground v.1.15,2013-04-23 11:50:00,
2013-04-23 06:56:00,67.1,63.1,30.11,South,176,0.0,-999.0,87,0.00,,,0.00,49,Wunderground v.1.15,2013-04-23 11:56:00,
2013-04-23 07:02:00,67.2,63.2,30.11,South,182,1.0,-999.0,87,0.00,,,0.00,51,Wunderground v.1.15,2013-04-23 12:02:00,
2013-04-23 07:08:00,67.3,63.3,30.11,East,89,1.0,-999.0,87,0.00,,,0.00,65,Wunderground v.1.15,2013-04-23 12:08:00,
2013-04-23 07:14:00,67.5,63.5,30.11,South,180,1.0,-999.0,87,0.00,,,0.00,72,Wunderground v.1.15,2013-04-23 12:14:00,
2013-04-23 07:20:00,67.5,63.2,30.11,SSW,201,1.0,-999.0,86,0.00,,,0.00,81,Wunderground v.1.15,2013-04-23 12:20:00,
2013-04-23 07:26:00,67.6,63.3,30.11,SW,227,1.0,-999.0,86,0.00,,,0.00,70,Wunderground v.1.15,2013-04-23 12:26:00,
2013-04-23 07:32:00,67.6,63.3,30.11,SSE,147,1.0,-999.0,86,0.00,,,0.00,91,Wunderground v.1.15,2013-04-23 12:32:00,
2013-04-23 07:38:00,67.7,63.4,30.11,SW,221,1.0,-999.0,86,0.00,,,0.00,47,Wunderground v.1.15,2013-04-23 12:38:00,
2013-04-23 07:44:00,67.6,63.3,30.11,ESE,113,1.0,-999.0,86,0.00,,,0.00,53,Wunderground v.1.15,2013-04-23 12:44:00,
2013-04-23 07:50:00,67.5,63.2,30.11,South,172,1.0,-999.0,86,0.00,,,0.00,100,Wunderground v.1.15,2013-04-23 12:50:00,
2013-04-23 07:56:00,67.6,63.3,30.11,ESE,108,1.0,-999.0,86,0.00,,,0.00,102,Wunderground v.1.15,2013-04-23 12:56:00,
2013-04-23 08:02:00,67.6,63.3,30.12,SE,132,1.0,-999.0,86,0.00,,,0.00,120,Wunderground v.1.15,2013-04-23 13:02:00,
2013-04-23 08:08:00,67.8,63.5,30.12,South,177,1.0,-999.0,86,0.00,,,0.00,121,Wunderground v.1.15,2013-04-23 13:08:00,
2013-04-23 08:14:00,67.9,63.6,30.12,ENE,77,1.0,-999.0,86,0.00,,,0.00,167,Wunderground v.1.15,2013-04-23 13:14:00,
2013-04-23 08:20:00,68.0,63.3,30.12,SE,132,1.0,-999.0,85,0.00,,,0.00,155,Wunderground v.1.15,2013-04-23 13:20:00,
2013-04-23 08:26:00,68.3,63.6,30.12,SSE,157,1.0,-999.0,85,0.00,,,0.00,148,Wunderground v.1.15,2013-04-23 13:26:00,
2013-04-23 08:32:00,68.5,63.5,30.12,SSE,150,1.0,-999.0,84,0.00,,,0.00,197,Wunderground v.1.15,2013-04-23 13:32:00,
2013-04-23 08:38:00,68.8,63.8,30.12,South,188,1.0,-999.0,84,0.00,,,0.00,214,Wunderground v.1.15,2013-04-23 13:38:00,
2013-04-23 08:44:00,69.0,63.6,30.12,East,80,2.0,-999.0,83,0.00,,,0.00,197,Wunderground v.1.15,2013-04-23 13:44:00,
2013-04-23 08:50:00,69.1,63.4,30.13,SSE,149,1.0,-999.0,82,0.00,,,0.00,199,Wunderground v.1.15,2013-04-23 13:50:00,
2013-04-23 08:56:00,69.3,63.6,30.13,East,82,1.0,-999.0,82,0.00,,,0.00,192,Wunderground v.1.15,2013-04-23 13:56:00,
2013-04-23 09:02:00,69.5,63.4,30.13,WSW,250,1.0,-999.0,81,0.00,,,0.00,232,Wunderground v.1.15,2013-04-23 14:02:00,
2013-04-23 09:08:00,69.7,63.3,30.13,NNE,29,1.0,-999.0,80,0.00,,,0.00,220,Wunderground v.1.15,2013-04-23 14:08:00,
2013-04-23 09:14:00,69.8,62.6,30.13,East,88,1.0,-999.0,78,0.00,,,0.00,260,Wunderground v.1.15,2013-04-23 14:14:00,
2013-04-23 09:20:00,70.0,62.8,30.13,SE,144,1.0,-999.0,78,0.00,,,0.00,292,Wunderground v.1.15,2013-04-23 14:20:00,
2013-04-23 09:26:00,70.3,62.7,30.13,ENE,78,1.0,-999.0,77,0.00,,,0.00,346,Wunderground v.1.15,2013-04-23 14:26:00,
2013-04-23 09:32:00,70.6,63.0,30.13,South,190,2.0,-999.0,77,0.00,,,0.00,318,Wunderground v.1.15,2013-04-23 14:32:00,
2013-04-23 09:38:00,70.9,63.3,30.14,North,355,1.0,-999.0,77,0.00,,,0.00,290,Wunderground v.1.15,2013-04-23 14:38:00,
2013-04-23 09:44:00,71.0,63.4,30.14,ESE,113,2.0,-999.0,77,0.00,,,0.00,288,Wunderground v.1.15,2013-04-23 14:44:00,
2013-04-23 09:50:00,70.9,63.3,30.14,East,79,3.0,-999.0,77,0.00,,,0.00,308,Wunderground v.1.15,2013-04-23 14:50:00,
2013-04-23 09:56:00,70.9,63.7,30.14,North,355,2.0,-999.0,78,0.00,,,0.00,297,Wunderground v.1.15,2013-04-23 14:56:00,
2013-04-23 10:02:00,70.9,63.3,30.14,ENE,64,1.0,-999.0,77,0.00,,,0.00,304,Wunderground v.1.15,2013-04-23 15:02:00,
2013-04-23 10:08:00,71.0,63.4,30.15,East,98,1.0,-999.0,77,0.00,,,0.00,276,Wunderground v.1.15,2013-04-23 15:08:00,
2013-04-23 10:14:00,70.9,63.0,30.15,SE,134,2.0,-999.0,76,0.00,,,0.00,318,Wunderground v.1.15,2013-04-23 15:14:00,
2013-04-23 10:20:00,70.8,62.9,30.15,East,84,1.0,-999.0,76,0.00,,,0.00,341,Wunderground v.1.15,2013-04-23 15:20:00,
2013-04-23 10:26:00,71.1,63.1,30.15,NNE,13,1.0,-999.0,76,0.00,,,0.00,404,Wunderground v.1.15,2013-04-23 15:26:00,
2013-04-23 10:32:00,71.3,63.0,30.15,SSE,148,1.0,-999.0,75,0.00,,,0.00,250,Wunderground v.1.15,2013-04-23 15:32:00,
2013-04-23 10:38:00,71.4,63.4,30.15,NNE,30,2.0,-999.0,76,0.00,,,0.00,480,Wunderground v.1.15,2013-04-23 15:38:00,
2013-04-23 10:44:00,72.0,63.6,30.15,NNE,13,1.0,-999.0,75,0.00,,,0.00,480,Wunderground v.1.15,2013-04-23 15:44:00,
2013-04-23 10:50:00,72.6,64.2,30.15,SSW,194,1.0,-999.0,75,0.00,,,0.00,483,Wunderground v.1.15,2013-04-23 15:50:00,
2013-04-23 10:56:00,72.8,63.2,30.15,NNW,337,1.0,-999.0,72,0.00,,,0.00,343,Wunderground v.1.15,2013-04-23 15:56:00,
2013-04-23 11:02:00,73.0,63.8,30.15,NE,46,2.0,-999.0,73,0.00,,,0.00,622,Wunderground v.1.15,2013-04-23 16:02:00,
2013-04-23 11:08:00,73.5,63.5,30.15,SE,130,1.0,-999.0,71,0.00,,,0.00,213,Wunderground v.1.15,2013-04-23 16:08:00,
2013-04-23 11:14:00,73.2,63.2,30.15,SE,133,1.0,-999.0,71,0.00,,,0.00,436,Wunderground v.1.15,2013-04-23 16:14:00,
2013-04-23 11:20:00,73.2,63.2,30.15,South,179,1.0,-999.0,71,0.00,,,0.00,274,Wunderground v.1.15,2013-04-23 16:20:00,
2013-04-23 11:26:00,73.0,63.0,30.14,South,182,1.0,-999.0,71,0.00,,,0.00,693,Wunderground v.1.15,2013-04-23 16:26:00,
2013-04-23 11:32:00,73.7,62.9,30.14,SSW,195,2.0,-999.0,69,0.00,,,0.00,673,Wunderground v.1.15,2013-04-23 16:32:00,
2013-04-23 11:38:00,74.4,63.6,30.14,ESE,115,3.0,-999.0,69,0.00,,,0.00,768,Wunderground v.1.15,2013-04-23 16:38:00,
2013-04-23 11:44:00,74.9,63.6,30.14,West,265,3.0,-999.0,68,0.00,,,0.00,610,Wunderground v.1.15,2013-04-23 16:44:00,
2013-04-23 11:50:00,75.2,63.9,30.14,South,170,2.0,-999.0,68,0.00,,,0.00,578,Wunderground v.1.15,2013-04-23 16:50:00,
2013-04-23 11:56:00,75.6,63.4,30.13,SSW,202,2.0,-999.0,66,0.00,,,0.00,1023,Wunderground v.1.15,2013-04-23 16:56:00,
2013-04-23 12:02:00,76.2,63.6,30.13,SSE,166,2.0,-999.0,65,0.00,,,0.00,1011,Wunderground v.1.15,2013-04-23 17:02:00,
2013-04-23 12:08:00,76.9,63.8,30.13,ESE,121,2.0,-999.0,64,0.00,,,0.00,998,Wunderground v.1.15,2013-04-23 17:08:00,
2013-04-23 12:14:00,77.1,63.5,30.13,South,171,2.0,-999.0,63,0.00,,,0.00,993,Wunderground v.1.15,2013-04-23 17:14:00,
2013-04-23 12:20:00,77.5,64.4,30.13,SSE,167,2.0,-999.0,64,0.00,,,0.00,1007,Wunderground v.1.15,2013-04-23 17:20:00,
2013-04-23 12:26:00,78.1,63.6,30.13,ESE,109,2.0,-999.0,61,0.00,,,0.00,1007,Wunderground v.1.15,2013-04-23 17:26:00,
2013-04-23 12:32:00,78.2,63.6,30.13,ENE,73,2.0,-999.0,61,0.00,,,0.00,991,Wunderground v.1.15,2013-04-23 17:32:00,
2013-04-23 12:38:00,78.0,63.5,30.13,East,82,2.0,-999.0,61,0.00,,,0.00,998,Wunderground v.1.15,2013-04-23 17:38:00,
2013-04-23 12:44:00,78.0,63.5,30.12,East,82,2.0,-999.0,61,0.00,,,0.00,1000,Wunderground v.1.15,2013-04-23 17:44:00,
2013-04-23 12:50:00,78.5,63.9,30.12,East,96,2.0,-999.0,61,0.00,,,0.00,997,Wunderground v.1.15,2013-04-23 17:50:00,
2013-04-23 12:56:00,79.3,63.7,30.12,SSW,206,1.0,-999.0,59,0.00,,,0.00,997,Wunderground v.1.15,2013-04-23 17:56:00,
2013-04-23 13:02:00,79.2,63.6,30.12,East,93,2.0,-999.0,59,0.00,,,0.00,995,Wunderground v.1.15,2013-04-23 18:02:00,
2013-04-23 13:08:00,79.3,63.7,30.12,South,182,3.0,-999.0,59,0.00,,,0.00,997,Wunderground v.1.15,2013-04-23 18:08:00,
2013-04-23 13:14:00,79.2,63.6,30.12,East,86,2.0,-999.0,59,0.00,,,0.00,995,Wunderground v.1.15,2013-04-23 18:14:00,
2013-04-23 13:20:00,79.5,63.4,30.12,SSW,196,2.0,-999.0,58,0.00,,,0.00,993,Wunderground v.1.15,2013-04-23 18:20:00,
2013-04-23 13:26:00,79.4,63.3,30.12,SSW,202,2.0,-999.0,58,0.00,,,0.00,984,Wunderground v.1.15,2013-04-23 18:26:00,
2013-04-23 13:32:00,79.3,63.7,30.12,SE,132,2.0,-999.0,59,0.00,,,0.00,979,Wunderground v.1.15,2013-04-23 18:32:00,
2013-04-23 13:38:00,79.2,63.6,30.11,SSE,154,2.0,-999.0,59,0.00,,,0.00,974,Wunderground v.1.15,2013-04-23 18:38:00,
2013-04-23 13:44:00,79.4,63.8,30.11,WSW,242,2.0,-999.0,59,0.00,,,0.00,969,Wunderground v.1.15,2013-04-23 18:44:00,
2013-04-23 13:50:00,79.4,64.3,30.12,ENE,78,2.0,-999.0,60,0.00,,,0.00,962,Wunderground v.1.15,2013-04-23 18:50:00,
2013-04-23 13:56:00,79.6,64.0,30.12,SE,134,2.0,-999.0,59,0.00,,,0.00,956,Wunderground v.1.15,2013-04-23 18:56:00,
2013-04-23 14:02:00,79.3,64.2,30.12,East,82,3.0,-999.0,60,0.00,,,0.00,944,Wunderground v.1.15,2013-04-23 19:02:00,
2013-04-23 14:08:00,79.7,64.6,30.11,ESE,111,2.0,-999.0,60,0.00,,,0.00,928,Wunderground v.1.15,2013-04-23 19:08:00,
2013-04-23 14:14:00,80.0,64.4,30.11,South,169,2.0,-999.0,59,0.00,,,0.00,925,Wunderground v.1.15,2013-04-23 19:14:00,
2013-04-23 14:20:00,80.4,64.3,30.12,ESE,113,2.0,-999.0,58,0.00,,,0.00,912,Wunderground v.1.15,2013-04-23 19:20:00,
2013-04-23 14:26:00,80.3,64.7,30.11,South,178,2.0,-999.0,59,0.00,,,0.00,907,Wunderground v.1.15,2013-04-23 19:26:00,
2013-04-23 14:32:00,80.7,64.5,30.11,SE,130,2.0,-999.0,58,0.00,,,0.00,895,Wunderground v.1.15,2013-04-23 19:32:00,
2013-04-23 14:38:00,80.9,64.7,30.11,ESE,108,2.0,-999.0,58,0.00,,,0.00,911,Wunderground v.1.15,2013-04-23 19:38:00,
2013-04-23 14:44:00,80.2,64.6,30.11,SSE,159,2.0,-999.0,59,0.00,,,0.00,485,Wunderground v.1.15,2013-04-23 19:44:00,
2013-04-23 14:50:00,79.6,65.0,30.11,SSW,196,2.0,-999.0,61,0.00,,,0.00,531,Wunderground v.1.15,2013-04-23 19:50:00,
2013-04-23 14:56:00,78.7,64.6,30.11,ESE,113,2.0,-999.0,62,0.00,,,0.00,559,Wunderground v.1.15,2013-04-23 19:56:00,
2013-04-23 15:02:00,78.1,64.5,30.11,ENE,68,2.0,-999.0,63,0.00,,,0.00,531,Wunderground v.1.15,2013-04-23 20:02:00,
2013-04-23 15:08:00,77.6,64.9,30.10,SSW,206,2.0,-999.0,65,0.00,,,0.00,895,Wunderground v.1.15,2013-04-23 20:08:00,
2013-04-23 15:14:00,77.5,64.4,30.10,South,187,2.0,-999.0,64,0.00,,,0.00,489,Wunderground v.1.15,2013-04-23 20:14:00,
2013-04-23 15:20:00,77.0,64.3,30.10,South,179,2.0,-999.0,65,0.00,,,0.00,531,Wunderground v.1.15,2013-04-23 20:20:00,
2013-04-23 15:26:00,76.9,64.7,30.10,SSE,162,2.0,-999.0,66,0.00,,,0.00,483,Wunderground v.1.15,2013-04-23 20:26:00,
2013-04-23 15:32:00,76.7,64.5,30.09,WSW,243,2.0,-999.0,66,0.00,,,0.00,452,Wunderground v.1.15,2013-04-23 20:32:00,
2013-04-23 15:38:00,76.6,64.4,30.10,SSE,166,2.0,-999.0,66,0.00,,,0.00,397,Wunderground v.1.15,2013-04-23 20:38:00,
2013-04-23 15:44:00,76.6,64.4,30.09,East,88,1.0,-999.0,66,0.00,,,0.00,557,Wunderground v.1.15,2013-04-23 20:44:00,
2013-04-23 15:50:00,76.6,64.8,30.09,South,176,1.0,-999.0,67,0.00,,,0.00,274,Wunderground v.1.15,2013-04-23 20:50:00,
2013-04-23 15:56:00,76.5,64.7,30.09,ENE,63,2.0,-999.0,67,0.00,,,0.00,679,Wunderground v.1.15,2013-04-23 20:56:00,
2013-04-23 16:02:00,77.0,65.2,30.08,SSW,206,1.0,-999.0,67,0.00,,,0.00,642,Wunderground v.1.15,2013-04-23 21:02:00,
2013-04-23 16:08:00,77.4,65.1,30.08,SSE,165,2.0,-999.0,66,0.00,,,0.00,621,Wunderground v.1.15,2013-04-23 21:08:00,
2013-04-23 16:14:00,77.6,64.9,30.08,SE,139,2.0,-999.0,65,0.00,,,0.00,603,Wunderground v.1.15,2013-04-23 21:14:00,
2013-04-23 16:20:00,77.2,65.0,30.08,SE,129,2.0,-999.0,66,0.00,,,0.00,557,Wunderground v.1.15,2013-04-23 21:20:00,
2013-04-23 16:26:00,77.1,64.9,30.08,SE,146,2.0,-999.0,66,0.00,,,0.00,141,Wunderground v.1.15,2013-04-23 21:26:00,
2013-04-23 16:32:00,76.7,64.5,30.08,SSE,165,1.0,-999.0,66,0.00,,,0.00,100,Wunderground v.1.15,2013-04-23 21:32:00,
2013-04-23 16:38:00,76.4,64.6,30.08,East,92,2.0,-999.0,67,0.00,,,0.00,192,Wunderground v.1.15,2013-04-23 21:38:00,
2013-04-23 16:44:00,76.1,64.8,30.08,SSE,156,2.0,-999.0,68,0.00,,,0.00,244,Wunderground v.1.15,2013-04-23 21:44:00,
2013-04-23 16:50:00,75.8,64.9,30.08,East,101,2.0,-999.0,69,0.00,,,0.00,209,Wunderground v.1.15,2013-04-23 21:50:00,
2013-04-23 16:56:00,75.3,64.4,30.08,South,190,3.0,-999.0,69,0.00,,,0.00,178,Wunderground v.1.15,2013-04-23 21:56:00,
2013-04-23 17:02:00,75.3,64.8,30.08,SE,134,2.0,-999.0,70,0.00,,,0.00,165,Wunderground v.1.15,2013-04-23 22:02:00,
2013-04-23 17:08:00,75.1,64.6,30.08,SE,136,1.0,-999.0,70,0.00,,,0.00,146,Wunderground v.1.15,2013-04-23 22:08:00,
2013-04-23 17:14:00,74.6,64.2,30.07,South,172,2.0,-999.0,70,0.00,,,0.00,105,Wunderground v.1.15,2013-04-23 22:14:00,
2013-04-23 17:20:00,74.3,64.3,30.07,SE,143,2.0,-999.0,71,0.00,,,0.00,67,Wunderground v.1.15,2013-04-23 22:20:00,
2013-04-23 17:26:00,74.0,64.0,30.07,South,169,2.0,-999.0,71,0.00,,,0.00,132,Wunderground v.1.15,2013-04-23 22:26:00,
2013-04-23 17:32:00,73.7,64.1,30.07,WSW,244,2.0,-999.0,72,0.00,,,0.00,104,Wunderground v.1.15,2013-04-23 22:32:00,
2013-04-23 17:38:00,73.4,64.2,30.07,SSW,203,1.0,-999.0,73,0.00,,,0.00,67,Wunderground v.1.15,2013-04-23 22:38:00,
2013-04-23 17:44:00,73.1,64.3,30.07,SE,141,1.0,-999.0,74,0.00,,,0.00,56,Wunderground v.1.15,2013-04-23 22:44:00,
2013-04-23 17:50:00,72.7,63.9,30.07,SSE,161,2.0,-999.0,74,0.00,,,0.00,60,Wunderground v.1.15,2013-04-23 22:50:00,
2013-04-23 17:56:00,72.4,64.0,30.07,SSE,167,2.0,-999.0,75,0.00,,,0.00,46,Wunderground v.1.15,2013-04-23 22:56:00,
2013-04-23 18:02:00,72.1,64.1,30.07,South,184,2.0,-999.0,76,0.00,,,0.00,49,Wunderground v.1.15,2013-04-23 23:02:00,
2013-04-23 18:08:00,72.0,64.0,30.07,SSE,156,1.0,-999.0,76,0.00,,,0.00,44,Wunderground v.1.15,2013-04-23 23:08:00,
2013-04-23 18:14:00,71.7,64.1,30.07,East,82,1.0,-999.0,77,0.00,,,0.00,51,Wunderground v.1.15,2013-04-23 23:14:00,
2013-04-23 18:20:00,71.5,63.9,30.07,SSE,167,1.0,-999.0,77,0.00,,,0.00,70,Wunderground v.1.15,2013-04-23 23:20:00,
2013-04-23 18:26:00,71.3,64.1,30.07,ESE,120,1.0,-999.0,78,0.00,,,0.00,42,Wunderground v.1.15,2013-04-23 23:26:00,
2013-04-23 18:32:00,71.2,64.0,30.07,ESE,120,1.0,-999.0,78,0.00,,,0.00,40,Wunderground v.1.15,2013-04-23 23:32:00,
2013-04-23 18:38:00,71.0,64.2,30.07,SSE,155,1.0,-999.0,79,0.00,,,0.00,30,Wunderground v.1.15,2013-04-23 23:38:00,
2013-04-23 18:44:00,70.8,64.0,30.07,SE,128,1.0,-999.0,79,0.00,,,0.00,26,Wunderground v.1.15,2013-04-23 23:44:00,
2013-04-23 18:50:00,70.5,64.0,30.07,South,179,1.0,-999.0,80,0.00,,,0.00,21,Wunderground v.1.15,2013-04-23 23:50:00,
2013-04-23 18:56:00,70.3,63.8,30.07,SSW,210,1.0,-999.0,80,0.00,,,0.00,14,Wunderground v.1.15,2013-04-23 23:56:00,
2013-04-23 19:02:00,70.1,64.0,30.07,South,190,1.0,-999.0,81,0.00,,,0.00,11,Wunderground v.1.15,2013-04-24 00:02:00,
2013-04-23 19:08:00,70.0,63.9,30.07,SSW,195,1.0,-999.0,81,0.00,,,0.00,7,Wunderground v.1.15,2013-04-24 00:08:00,
2013-04-23 19:14:00,69.9,64.2,30.07,SSE,152,0.0,-999.0,82,0.00,,,0.00,5,Wunderground v.1.15,2013-04-24 00:14:00,
2013-04-23 19:20:00,69.7,64.0,30.07,SE,127,0.0,-999.0,82,0.00,,,0.00,0,Wunderground v.1.15,2013-04-24 00:20:00,
2013-04-23 19:26:00,69.5,63.8,30.07,SE,135,0.0,-999.0,82,0.00,,,0.00,0,Wunderground v.1.15,2013-04-24 00:26:00,
2013-04-23 19:32:00,69.3,63.9,30.07,SE,135,0.0,-999.0,83,0.00,,,0.00,0,Wunderground v.1.15,2013-04-24 00:32:00,
2013-04-23 19:38:00,69.1,63.7,30.07,SSE,162,0.0,-999.0,83,0.00,,,0.00,0,Wunderground v.1.15,2013-04-24 00:38:00,
2013-04-23 19:44:00,68.9,63.5,30.07,SSE,162,0.0,-999.0,83,0.00,,,0.00,0,Wunderground v.1.15,2013-04-24 00:44:00,
2013-04-23 19:50:00,68.7,63.7,30.08,SE,140,0.0,-999.0,84,0.00,,,0.00,0,Wunderground v.1.15,2013-04-24 00:50:00,
2013-04-23 19:56:00,68.6,63.9,30.08,SSW,209,0.0,-999.0,85,0.00,,,0.00,0,Wunderground v.1.15,2013-04-24 00:56:00,
2013-04-23 20:02:00,68.4,63.7,30.08,SSE,155,0.0,-999.0,85,0.00,,,0.00,0,Wunderground v.1.15,2013-04-24 01:02:00,
2013-04-23 20:08:00,68.3,63.6,30.08,SW,219,0.0,-999.0,85,0.00,,,0.00,0,Wunderground v.1.15,2013-04-24 01:08:00,
2013-04-23 20:14:00,68.3,63.6,30.08,SE,132,0.0,-999.0,85,0.00,,,0.00,0,Wunderground v.1.15,2013-04-24 01:14:00,
2013-04-23 20:20:00,68.2,63.9,30.09,SSE,157,0.0,-999.0,86,0.00,,,0.00,0,Wunderground v.1.15,2013-04-24 01:20:00,
2013-04-23 20:26:00,68.1,63.8,30.09,SSE,157,0.0,-999.0,86,0.00,,,0.00,0,Wunderground v.1.15,2013-04-24 01:26:00,
2013-04-23 20:32:00,68.1,64.1,30.09,SSW,211,0.0,-999.0,87,0.00,,,0.00,0,Wunderground v.1.15,2013-04-24 01:32:00,
2013-04-23 20:38:00,68.0,64.0,30.09,South,180,0.0,-999.0,87,0.00,,,0.00,0,Wunderground v.1.15,2013-04-24 01:38:00,
2013-04-23 20:44:00,67.9,63.9,30.09,SSE,166,0.0,-999.0,87,0.00,,,0.00,0,Wunderground v.1.15,2013-04-24 01:44:00,
2013-04-23 20:50:00,67.8,63.8,30.09,SSE,166,0.0,-999.0,87,0.00,,,0.00,0,Wunderground v.1.15,2013-04-24 01:50:00,
2013-04-23 20:56:00,67.8,63.8,30.09,SSE,166,0.0,-999.0,87,0.00,,,0.00,0,Wunderground v.1.15,2013-04-24 01:56:00,
2013-04-23 21:02:00,67.7,63.7,30.09,SSE,166,0.0,-999.0,87,0.00,,,0.00,0,Wunderground v.1.15,2013-04-24 02:02:00,
2013-04-23 21:08:00,67.7,63.7,30.09,SSE,157,0.0,-999.0,87,0.00,,,0.00,0,Wunderground v.1.15,2013-04-24 02:08:00,
2013-04-23 21:14:00,67.6,63.6,30.09,SSE,158,0.0,-999.0,87,0.00,,,0.00,0,Wunderground v.1.15,2013-04-24 02:14:00,
2013-04-23 21:21:00,67.5,63.5,30.09,SSE,158,0.0,-999.0,87,0.00,,,0.00,0,Wunderground v.1.15,2013-04-24 02:21:00,
2013-04-23 21:26:00,67.4,63.7,30.09,SSE,158,0.0,-999.0,88,0.00,,,0.00,0,Wunderground v.1.15,2013-04-24 02:26:00,
2013-04-23 21:32:00,67.3,63.6,30.09,ESE,113,0.0,-999.0,88,0.00,,,0.00,0,Wunderground v.1.15,2013-04-24 02:32:00,
2013-04-23 21:38:00,67.2,63.5,30.10,SSE,157,0.0,-999.0,88,0.00,,,0.00,0,Wunderground v.1.15,2013-04-24 02:38:00,
2013-04-23 21:44:00,67.1,63.4,30.10,SSE,157,0.0,-999.0,88,0.00,,,0.00,0,Wunderground v.1.15,2013-04-24 02:44:00,
2013-04-23 21:50:00,67.1,63.4,30.10,SSE,157,0.0,-999.0,88,0.00,,,0.00,0,Wunderground v.1.15,2013-04-24 02:50:00,
2013-04-23 21:56:00,67.0,63.3,30.09,SSE,157,0.0,-999.0,88,0.00,,,0.00,0,Wunderground v.1.15,2013-04-24 02:56:00,
2013-04-23 22:02:00,66.9,63.2,30.10,SSE,157,0.0,-999.0,88,0.00,,,0.00,0,Wunderground v.1.15,2013-04-24 03:02:00,
2013-04-23 22:08:00,66.8,63.1,30.10,SSE,157,0.0,-999.0,88,0.00,,,0.00,0,Wunderground v.1.15,2013-04-24 03:08:00,
2013-04-23 22:14:00,66.7,63.4,30.10,SSE,157,0.0,-999.0,89,0.00,,,0.00,0,Wunderground v.1.15,2013-04-24 03:14:00,
2013-04-23 22:20:00,66.7,63.4,30.10,South,179,0.0,-999.0,89,0.00,,,0.00,0,Wunderground v.1.15,2013-04-24 03:20:00,
2013-04-23 22:26:00,66.8,63.8,30.10,South,184,0.0,-999.0,90,0.00,,,0.00,0,Wunderground v.1.15,2013-04-24 03:26:00,
2013-04-23 22:32:00,66.7,63.7,30.10,South,184,0.0,-999.0,90,0.00,,,0.00,0,Wunderground v.1.15,2013-04-24 03:32:00,
2013-04-23 22:38:00,66.7,63.7,30.10,South,180,0.0,-999.0,90,0.00,,,0.00,0,Wunderground v.1.15,2013-04-24 03:38:00,
2013-04-23 22:45:00,66.6,63.6,30.09,South,180,0.0,-999.0,90,0.00,,,0.00,0,Wunderground v.1.15,2013-04-24 03:45:00,
2013-04-23 22:52:00,66.6,63.6,30.09,South,180,0.0,-999.0,90,0.00,,,0.00,0,Wunderground v.1.15,2013-04-24 03:52:00,
2013-04-23 22:58:00,66.6,63.6,30.09,South,180,0.0,-999.0,90,0.00,,,0.00,0,Wunderground v.1.15,2013-04-24 03:58:00,
2013-04-23 23:02:00,66.5,63.5,30.09,South,180,0.0,-999.0,90,0.00,,,0.00,0,Wunderground v.1.15,2013-04-24 04:02:00,
2013-04-23 23:04:00,66.5,63.5,30.09,South,180,0.0,-999.0,90,0.00,,,0.00,0,Wunderground v.1.15,2013-04-24 04:04:00,
2013-04-23 23:10:00,66.5,63.8,30.09,South,180,0.0,-999.0,91,0.00,,,0.00,0,Wunderground v.1.15,2013-04-24 04:10:00,
2013-04-23 23:12:00,66.5,63.8,30.09,South,180,0.0,-999.0,91,0.00,,,0.00,0,Wunderground v.1.15,2013-04-24 04:12:00,
2013-04-23 23:18:00,66.4,63.7,30.09,South,169,0.0,-999.0,91,0.00,,,0.00,0,Wunderground v.1.15,2013-04-24 04:18:00,
2013-04-23 23:24:00,66.4,63.7,30.09,South,169,0.0,-999.0,91,0.00,,,0.00,0,Wunderground v.1.15,2013-04-24 04:24:00,
2013-04-23 23:30:00,66.3,63.6,30.09,South,169,0.0,-999.0,91,0.00,,,0.00,0,Wunderground v.1.15,2013-04-24 04:30:00,
2013-04-23 23:36:00,66.3,63.6,30.09,South,169,0.0,-999.0,91,0.00,,,0.00,0,Wunderground v.1.15,2013-04-24 04:36:00,
2013-04-23 23:42:00,66.3,63.6,30.09,South,169,0.0,-999.0,91,0.00,,,0.00,0,Wunderground v.1.15,2013-04-24 04:42:00,
2013-04-23 23:48:00,66.4,63.7,30.09,South,180,0.0,-999.0,91,0.00,,,0.00,0,Wunderground v.1.15,2013-04-24 04:48:00,
2013-04-23 23:54:00,66.3,63.6,30.08,South,180,0.0,-999.0,91,0.00,,,0.00,0,Wunderground v.1.15,2013-04-24 04:54:00,